createdAt,value
2022-11-25T09:05:16.783Z,-0.38
2022-11-25T09:13:40.114Z,-0.31
2022-11-25T09:22:03.247Z,-0.28
2022-11-25T09:30:27.601Z,-0.42
2022-11-25T09:38:51.927Z,-0.52
2022-11-25T09:47:54.366Z,-0.40
2022-11-25T09:56:33.088Z,-0.27
2022-11-25T10:05:18.703Z,-0.16
2022-11-25T10:13:52.763Z,0.16
2022-11-25T10:22:42.833Z,0.31
2022-11-25T10:31:18.408Z,0.26
2022-11-25T10:39:41.470Z,0.31
2022-11-25T10:48:15.052Z,0.37
2022-11-25T10:56:51.861Z,0.32
2022-11-25T11:05:18.422Z,0.18
2022-11-25T11:13:41.673Z,0.39
2022-11-25T11:22:18.020Z,0.41
2022-11-25T11:30:56.622Z,0.41
2022-11-25T11:39:47.718Z,0.43
2022-11-25T11:48:29.493Z,0.48
2022-11-25T11:57:15.031Z,0.47
2022-11-25T12:05:38.862Z,0.65
2022-11-25T12:14:11.975Z,0.93
2022-11-25T12:22:47.347Z,0.96
2022-11-25T12:32:03.896Z,0.77
2022-11-25T12:40:55.671Z,0.69
2022-11-25T12:49:27.555Z,0.57
2022-11-25T12:58:23.089Z,0.44
2022-11-25T13:07:04.855Z,0.51
2022-11-25T13:15:31.585Z,0.55
2022-11-25T13:23:58.851Z,0.39
2022-11-25T13:32:37.881Z,0.23
2022-11-25T13:41:21.232Z,0.25
2022-11-25T13:49:55.326Z,0.23
2022-11-25T13:58:33.323Z,0.18
2022-11-25T14:07:20.925Z,0.03
2022-11-25T14:16:08.491Z,0.03
2022-11-25T14:24:39.834Z,0.09
2022-11-25T14:33:05.564Z,0.01
2022-11-25T14:41:32.761Z,-0.05
2022-11-25T14:58:50.721Z,0.04
2022-11-25T15:07:19.215Z,-0.06
2022-11-25T15:15:45.685Z,-0.15
2022-11-25T15:24:25.468Z,-0.20
2022-11-25T15:32:49.728Z,-0.09
2022-11-25T15:41:34.532Z,0.01
2022-11-25T15:50:03.630Z,-0.01
2022-11-25T15:58:26.682Z,-0.02
2022-11-25T16:06:57.445Z,0.08
2022-11-25T16:15:48.141Z,0.15
2022-11-25T16:24:35.434Z,0.06
2022-11-25T16:32:58.927Z,0.03
2022-11-25T16:41:25.325Z,0.14
2022-11-25T16:49:48.772Z,0.22
2022-11-25T16:58:19.898Z,0.15
2022-11-25T17:06:50.577Z,0.08
2022-11-25T17:15:35.986Z,0.18
2022-11-25T17:24:02.899Z,0.26
2022-11-25T17:32:26.927Z,0.23
2022-11-25T17:40:50.792Z,0.25
2022-11-25T17:49:15.592Z,0.22
2022-11-25T17:57:39.397Z,0.15
2022-11-25T18:06:03.263Z,0.18
2022-11-25T18:14:33.477Z,0.22
2022-11-25T18:22:56.524Z,0.21
2022-11-25T18:31:19.695Z,0.18
2022-11-25T18:39:43.776Z,0.06
2022-11-25T18:48:17.293Z,-0.04
2022-11-25T18:56:41.321Z,0.04
2022-11-25T19:05:20.013Z,0.16
2022-11-25T19:13:48.632Z,0.12
2022-11-25T19:22:16.024Z,0.07
2022-11-25T19:30:39.420Z,0.17
2022-11-25T19:39:02.436Z,0.22
2022-11-25T19:47:27.489Z,0.16
2022-11-25T19:55:51.340Z,0.11
2022-11-25T20:04:20.338Z,0.16
2022-11-25T20:12:43.611Z,0.22
2022-11-25T20:21:06.715Z,0.16
2022-11-25T20:29:30.747Z,0.11
2022-11-25T20:37:54.583Z,0.18
2022-11-25T20:46:25.244Z,0.30
2022-11-25T20:54:48.329Z,0.31
2022-11-25T21:03:11.390Z,0.27
2022-11-25T21:11:34.638Z,0.34
2022-11-25T21:19:58.672Z,0.42
2022-11-25T21:28:26.717Z,0.39
2022-11-25T21:36:53.215Z,0.38
2022-11-25T21:45:17.322Z,0.41
2022-11-25T21:53:40.639Z,0.31
2022-11-25T22:02:15.964Z,0.35
2022-11-25T22:10:41.929Z,0.41
2022-11-25T22:19:04.923Z,0.39
2022-11-25T22:27:36.417Z,0.31
2022-11-25T22:35:59.941Z,0.36
2022-11-25T22:44:33.084Z,0.38
2022-11-25T22:52:57.732Z,0.32
2022-11-25T23:01:20.729Z,0.25
2022-11-25T23:09:44.838Z,0.27
2022-11-25T23:18:14.852Z,0.32
2022-11-25T23:26:37.888Z,0.37
2022-11-25T23:35:01.072Z,0.41
2022-11-25T23:43:24.026Z,0.45
2022-11-25T23:51:47.312Z,0.34
